Time;durP1;ratioP1;P1;durP2;ratioP2;P2;SDS_P1;SDS_P2;PMS_P1;PMS_P2;Temp;Humidity;BMP_temperature;BMP_pressure;BME280_temperature;BME280_humidity;BME280_pressure;Samples;Min_cycle;Max_cycle;Signal;HPM_P1;HPM_P2
2023/09/18 00:00:51;;;;;;;;;;;;;;;;;;5050227;28;19924;-85
2023/09/18 00:03:18;;;;;;;;;;;;;;;;;;5062716;28;20477;-85
2023/09/18 00:05:44;;;;;;;;;;;;;;;;;;5067580;28;19934;-83
2023/09/18 00:08:10;;;;;;;;;;;;;;;;;;5084239;28;19988;-84
2023/09/18 00:10:36;;;;;;;;;;;;;;;;;;5087304;28;20352;-85
2023/09/18 00:13:02;;;;;;;;;;;;;;;;;;5067975;28;19932;-85
2023/09/18 00:15:28;;;;;;;;;;;;;;;;;;5064179;28;19935;-84
2023/09/18 00:17:54;;;;;;;;;;;;;;;;;;5078709;28;19931;-85
2023/09/18 00:20:20;;;;;;;;;;;;;;;;;;5079380;28;20022;-85
2023/09/18 00:22:46;;;;;;;;;;;;;;;;;;5077942;28;19935;-86
2023/09/18 00:25:14;;;;;;;;;;;;;;;;;;5083195;28;20010;-85
2023/09/18 00:27:40;;;;;;;;;;;;;;;;;;5061141;28;19936;-85
2023/09/18 00:30:06;;;;;;;;;;;;;;;;;;5060643;28;19997;-86
2023/09/18 00:32:32;;;;;;;;;;;;;;;;;;5057577;28;19920;-82
2023/09/18 00:34:58;;;;;;;;;;;;;;;;;;5061104;28;19943;-85
2023/09/18 00:37:24;;;;;;;;;;;;;;;;;;5069516;28;19932;-84
2023/09/18 00:39:49;;;;;;;;;;;;;;;;;;5061648;28;20017;-85
2023/09/18 00:42:17;;;;;;;;;;;;;;;;;;5060281;28;19924;-83
2023/09/18 00:44:43;;;;;;;;;;;;;;;;;;5061000;28;19928;-86
2023/09/18 00:47:09;;;;;;;;;;;;;;;;;;5039876;28;20177;-84
2023/09/18 00:49:35;;;;;;;;;;;;;;;;;;5058104;28;20280;-85
2023/09/18 00:52:01;;;;;;;;;;;;;;;;;;5042053;28;19935;-85
2023/09/18 00:54:27;;;;;;;;;;;;;;;;;;5060016;28;19928;-86
2023/09/18 00:56:53;;;;;;;;;;;;;;;;;;5058766;28;21265;-86
2023/09/18 00:59:19;;;;;;;;;;;;;;;;;;5055153;28;20334;-86
2023/09/18 01:01:45;;;;;;;;;;;;;;;;;;5057273;28;19928;-86
2023/09/18 01:04:13;;;;;;;;;;;;;;;;;;5062035;28;20094;-86
2023/09/18 01:06:38;;;;;;;;;;;;;;;;;;5065015;28;19928;-86
2023/09/18 01:09:12;;;;;;;;;;;;;;;;;;5047178;28;20303;-86
2023/09/18 01:11:37;;;;;;;;;;;;;;;;;;5062460;28;20199;-86
2023/09/18 01:14:03;;;;;;;;;;;;;;;;;;5056423;28;19935;-87
2023/09/18 01:16:30;;;;;;;;;;;;;;;;;;5058614;28;20691;-86
2023/09/18 01:18:55;;;;;;;;;;;;;;;;;;5075688;28;19928;-86
2023/09/18 01:21:21;;;;;;;;;;;;;;;;;;5056070;28;19939;-84
2023/09/18 01:23:48;;;;;;;;;;;;;;;;;;5070532;28;19928;-86
2023/09/18 01:26:14;;;;;;;;;;;;;;;;;;5047406;28;20041;-85
2023/09/18 01:28:40;;;;;;;;;;;;;;;;;;5065431;28;20871;-85
2023/09/18 01:31:06;;;;;;;;;;;;;;;;;;5061734;28;19928;-84
2023/09/18 01:33:32;;;;;;;;;;;;;;;;;;5058575;28;20002;-85
2023/09/18 01:35:58;;;;;;;;;;;;;;;;;;5059020;28;19928;-85
2023/09/18 01:38:24;;;;;;;;;;;;;;;;;;5056207;28;19924;-85
2023/09/18 01:40:50;;;;;;;;;;;;;;;;;;5058241;28;19925;-83
2023/09/18 01:43:16;;;;;;;;;;;;;;;;;;5038333;28;19959;-85
2023/09/18 01:45:42;;;;;;;;;;;;;;;;;;5057640;28;19996;-85
2023/09/18 01:48:08;;;;;;;;;;;;;;;;;;5052327;28;19928;-85
2023/09/18 01:50:34;;;;;;;;;;;;;;;;;;5058506;28;19924;-84
2023/09/18 01:53:00;;;;;;;;;;;;;;;;;;5058651;28;20475;-82
2023/09/18 01:55:26;;;;;;;;;;;;;;;;;;5060580;28;19963;-84
2023/09/18 01:57:52;;;;;;;;;;;;;;;;;;5060415;28;20034;-84
2023/09/18 02:00:18;;;;;;;;;;;;;;;;;;5059512;28;20558;-84
2023/09/18 02:02:44;;;;;;;;;;;;;;;;;;5058958;28;20456;-86
2023/09/18 02:05:10;;;;;;;;;;;;;;;;;;5060298;28;19931;-85
2023/09/18 02:07:36;;;;;;;;;;;;;;;;;;5063381;28;20006;-83
2023/09/18 02:10:03;;;;;;;;;;;;;;;;;;5041755;28;19932;-84
2023/09/18 02:12:29;;;;;;;;;;;;;;;;;;5060049;28;19939;-85
2023/09/18 02:14:57;;;;;;;;;;;;;;;;;;5058779;28;19928;-85
2023/09/18 02:17:23;;;;;;;;;;;;;;;;;;5062971;28;20026;-84
2023/09/18 02:19:48;;;;;;;;;;;;;;;;;;5057488;28;20551;-83
2023/09/18 02:22:14;;;;;;;;;;;;;;;;;;5060818;28;19928;-83
2023/09/18 02:24:40;;;;;;;;;;;;;;;;;;5081284;28;21046;-83
2023/09/18 02:27:06;;;;;;;;;;;;;;;;;;5079502;28;20049;-86
2023/09/18 02:29:32;;;;;;;;;;;;;;;;;;5071473;28;19930;-84
2023/09/18 02:31:58;;;;;;;;;;;;;;;;;;5070936;28;20527;-85
2023/09/18 02:34:24;;;;;;;;;;;;;;;;;;5061584;28;19954;-86
2023/09/18 02:36:50;;;;;;;;;;;;;;;;;;5063645;28;19924;-84
2023/09/18 02:39:16;;;;;;;;;;;;;;;;;;5062371;28;19978;-85
2023/09/18 02:41:41;;;;;;;;;;;;;;;;;;5085113;28;19932;-85
2023/09/18 02:44:07;;;;;;;;;;;;;;;;;;5078081;28;20352;-85
2023/09/18 02:46:33;;;;;;;;;;;;;;;;;;5087782;28;19932;-85
2023/09/18 02:48:59;;;;;;;;;;;;;;;;;;5060978;28;19974;-85
2023/09/18 02:51:25;;;;;;;;;;;;;;;;;;5065358;28;19974;-84
2023/09/18 02:53:51;;;;;;;;;;;;;;;;;;5069116;28;20330;-84
2023/09/18 02:56:17;;;;;;;;;;;;;;;;;;5066848;28;20318;-84
2023/09/18 02:58:43;;;;;;;;;;;;;;;;;;5051351;28;20386;-85
2023/09/18 03:01:09;;;;;;;;;;;;;;;;;;5047393;28;19977;-85
2023/09/18 03:03:35;;;;;;;;;;;;;;;;;;5068277;28;19932;-85
2023/09/18 03:06:01;;;;;;;;;;;;;;;;;;5066168;28;20287;-85
2023/09/18 03:08:28;;;;;;;;;;;;;;;;;;5055209;28;20400;-84
2023/09/18 03:10:54;;;;;;;;;;;;;;;;;;5076569;28;19932;-84
2023/09/18 03:13:20;;;;;;;;;;;;;;;;;;5082307;28;19924;-86
2023/09/18 03:15:49;;;;;;;;;;;;;;;;;;5053316;28;20192;-83
2023/09/18 03:18:15;;;;;;;;;;;;;;;;;;5064530;28;20011;-84
2023/09/18 03:20:41;;;;;;;;;;;;;;;;;;5084881;28;19970;-85
2023/09/18 03:23:07;;;;;;;;;;;;;;;;;;5068976;28;20661;-83
2023/09/18 03:25:33;;;;;;;;;;;;;;;;;;5050976;28;19932;-83
2023/09/18 03:27:59;;;;;;;;;;;;;;;;;;5059397;28;19928;-83
2023/09/18 03:30:24;;;;;;;;;;;;;;;;;;5056811;28;19936;-85
2023/09/18 03:32:50;;;;;;;;;;;;;;;;;;5058996;28;19924;-84
2023/09/18 03:35:19;;;;;;;;;;;;;;;;;;5063883;28;20019;-85
2023/09/18 03:37:45;;;;;;;;;;;;;;;;;;5041560;28;20425;-86
2023/09/18 03:40:11;;;;;;;;;;;;;;;;;;5057926;28;19932;-86
2023/09/18 03:42:37;;;;;;;;;;;;;;;;;;5055412;28;20467;-85
2023/09/18 03:45:03;;;;;;;;;;;;;;;;;;5058818;28;20127;-86
2023/09/18 03:47:29;;;;;;;;;;;;;;;;;;5042472;28;20144;-83
2023/09/18 03:49:55;;;;;;;;;;;;;;;;;;5057660;28;20372;-83
2023/09/18 03:52:21;;;;;;;;;;;;;;;;;;5080822;28;20019;-85
2023/09/18 03:54:47;;;;;;;;;;;;;;;;;;5060642;28;20363;-83
2023/09/18 03:57:13;;;;;;;;;;;;;;;;;;5041309;28;19942;-85
2023/09/18 03:59:39;;;;;;;;;;;;;;;;;;5065415;28;19935;-83
2023/09/18 04:02:05;;;;;;;;;;;;;;;;;;5062833;28;19928;-84
2023/09/18 04:04:32;;;;;;;;;;;;;;;;;;5063906;28;19939;-83
2023/09/18 04:06:58;;;;;;;;;;;;;;;;;;5045000;28;19968;-84
2023/09/18 04:09:24;;;;;;;;;;;;;;;;;;5055004;28;20042;-84
2023/09/18 04:11:49;;;;;;;;;;;;;;;;;;5043974;28;20366;-85
2023/09/18 04:14:15;;;;;;;;;;;;;;;;;;5081141;28;19928;-86
2023/09/18 04:16:42;;;;;;;;;;;;;;;;;;5057734;28;19927;-86
2023/09/18 04:19:09;;;;;;;;;;;;;;;;;;5058383;28;19989;-85
2023/09/18 04:21:35;;;;;;;;;;;;;;;;;;5058120;28;19924;-84
2023/09/18 04:24:01;;;;;;;;;;;;;;;;;;5040928;28;20068;-84
2023/09/18 04:26:30;;;;;;;;;;;;;;;;;;5042342;28;20433;-84
2023/09/18 04:28:56;;;;;;;;;;;;;;;;;;5057929;28;19938;-84
2023/09/18 04:31:22;;;;;;;;;;;;;;;;;;5059135;28;19928;-86
2023/09/18 04:33:48;;;;;;;;;;;;;;;;;;5058092;28;21463;-83
2023/09/18 04:36:14;;;;;;;;;;;;;;;;;;5058163;28;19928;-84
2023/09/18 04:38:40;;;;;;;;;;;;;;;;;;5040731;28;19928;-83
2023/09/18 04:41:07;;;;;;;;;;;;;;;;;;5057662;28;20341;-85
2023/09/18 04:43:33;;;;;;;;;;;;;;;;;;5056937;28;19928;-84
2023/09/18 04:45:58;;;;;;;;;;;;;;;;;;5074508;28;20357;-84
2023/09/18 04:48:24;;;;;;;;;;;;;;;;;;5057887;28;19971;-83
2023/09/18 04:50:50;;;;;;;;;;;;;;;;;;5059226;28;19928;-85
2023/09/18 04:53:16;;;;;;;;;;;;;;;;;;5059913;28;19931;-82
2023/09/18 04:55:42;;;;;;;;;;;;;;;;;;5058175;28;20299;-85
2023/09/18 04:58:08;;;;;;;;;;;;;;;;;;5060897;28;19928;-84
2023/09/18 05:00:34;;;;;;;;;;;;;;;;;;5062209;28;19932;-86
2023/09/18 05:03:01;;;;;;;;;;;;;;;;;;5056556;28;19928;-85
2023/09/18 05:05:27;;;;;;;;;;;;;;;;;;5061987;28;19924;-85
2023/09/18 05:07:53;;;;;;;;;;;;;;;;;;5051553;28;19927;-84
2023/09/18 05:10:19;;;;;;;;;;;;;;;;;;5068381;28;20505;-83
2023/09/18 05:12:45;;;;;;;;;;;;;;;;;;5061016;28;19928;-82
2023/09/18 05:15:12;;;;;;;;;;;;;;;;;;5069709;28;19923;-86
2023/09/18 05:17:38;;;;;;;;;;;;;;;;;;5047271;28;20028;-83
2023/09/18 05:20:04;;;;;;;;;;;;;;;;;;5057183;28;20354;-82
2023/09/18 05:22:30;;;;;;;;;;;;;;;;;;5049096;28;19953;-82
2023/09/18 05:24:56;;;;;;;;;;;;;;;;;;5067021;28;19928;-86
2023/09/18 05:27:25;;;;;;;;;;;;;;;;;;5075985;28;20026;-85
2023/09/18 05:29:50;;;;;;;;;;;;;;;;;;5063460;28;19928;-85
2023/09/18 05:32:16;;;;;;;;;;;;;;;;;;5055706;28;19942;-88
2023/09/18 05:34:42;;;;;;;;;;;;;;;;;;5044329;28;19939;-85
2023/09/18 05:37:08;;;;;;;;;;;;;;;;;;5045874;28;19932;-86
2023/09/18 05:39:34;;;;;;;;;;;;;;;;;;5061900;28;20723;-87
2023/09/18 05:42:00;;;;;;;;;;;;;;;;;;5084188;28;19932;-86
2023/09/18 05:44:26;;;;;;;;;;;;;;;;;;5061240;28;19928;-85
2023/09/18 05:46:52;;;;;;;;;;;;;;;;;;5060789;28;19993;-85
2023/09/18 05:49:18;;;;;;;;;;;;;;;;;;5059766;28;19932;-87
2023/09/18 05:51:44;;;;;;;;;;;;;;;;;;5057814;28;19928;-88
2023/09/18 05:54:09;;;;;;;;;;;;;;;;;;5064978;28;19978;-87
2023/09/18 05:56:35;;;;;;;;;;;;;;;;;;5055819;28;19932;-88
2023/09/18 05:59:01;;;;;;;;;;;;;;;;;;5077793;28;19924;-86
2023/09/18 06:01:27;;;;;;;;;;;;;;;;;;5042741;28;19931;-85
2023/09/18 06:03:53;;;;;;;;;;;;;;;;;;5045878;28;19947;-86
2023/09/18 06:06:19;;;;;;;;;;;;;;;;;;5076427;28;20669;-87
2023/09/18 06:08:45;;;;;;;;;;;;;;;;;;5056895;28;19981;-85
2023/09/18 06:11:11;;;;;;;;;;;;;;;;;;5055140;28;20494;-87
2023/09/18 06:13:37;;;;;;;;;;;;;;;;;;5056398;28;19924;-87
2023/09/18 06:16:07;;;;;;;;;;;;;;;;;;5053993;28;19955;-87
2023/09/18 06:18:33;;;;;;;;;;;;;;;;;;5047125;28;19930;-88
2023/09/18 06:20:59;;;;;;;;;;;;;;;;;;5082878;28;19923;-87
2023/09/18 06:23:25;;;;;;;;;;;;;;;;;;5043938;28;20046;-88
2023/09/18 06:25:56;;;;;;;;;;;;;;;;;;5048575;28;20497;-89
2023/09/18 06:28:21;;;;;;;;;;;;;;;;;;5061266;28;19928;-88
2023/09/18 06:30:48;;;;;;;;;;;;;;;;;;5085226;28;19931;-88
2023/09/18 06:33:14;;;;;;;;;;;;;;;;;;5044145;28;19930;-86
2023/09/18 06:35:39;;;;;;;;;;;;;;;;;;5066330;28;19943;-88
2023/09/18 06:38:06;;;;;;;;;;;;;;;;;;5048420;28;19928;-87
2023/09/18 06:40:32;;;;;;;;;;;;;;;;;;5044593;28;19928;-88
2023/09/18 06:42:58;;;;;;;;;;;;;;;;;;5044479;28;20394;-88
2023/09/18 06:45:24;;;;;;;;;;;;;;;;;;5077408;28;19981;-87
2023/09/18 06:47:50;;;;;;;;;;;;;;;;;;5082048;28;20271;-88
2023/09/18 06:50:18;;;;;;;;;;;;;;;;;;5045386;28;19935;-86
2023/09/18 06:52:44;;;;;;;;;;;;;;;;;;5045626;28;19934;-86
2023/09/18 06:55:10;;;;;;;;;;;;;;;;;;5060818;28;19997;-86
2023/09/18 06:57:36;;;;;;;;;;;;;;;;;;5048405;28;19940;-87
2023/09/18 07:00:02;;;;;;;;;;;;;;;;;;5073382;28;19924;-87
2023/09/18 07:02:28;;;;;;;;;;;;;;;;;;5068653;28;20368;-85
2023/09/18 07:04:54;;;;;;;;;;;;;;;;;;5092312;28;19927;-84
2023/09/18 07:07:25;;;;;;;;;;;;;;;;;;5084338;28;19932;-88
2023/09/18 07:09:50;;;;;;;;;;;;;;;;;;5049878;28;19927;-87
2023/09/18 07:12:19;;;;;;;;;;;;;;;;;;5063191;28;20273;-86
2023/09/18 07:14:45;;;;;;;;;;;;;;;;;;5072660;28;19935;-86
2023/09/18 07:17:11;;;;;;;;;;;;;;;;;;5056957;28;19935;-87
2023/09/18 07:19:37;;;;;;;;;;;;;;;;;;5049225;28;19928;-89
2023/09/18 07:22:03;;;;;;;;;;;;;;;;;;5073139;28;19931;-93
2023/09/18 07:24:29;;;;;;;;;;;;;;;;;;5051020;28;19927;-92
2023/09/18 07:26:55;;;;;;;;;;;;;;;;;;5079044;28;20287;-89
2023/09/18 07:29:21;;;;;;;;;;;;;;;;;;5047955;28;19928;-90
2023/09/18 07:31:49;;;;;;;;;;;;;;;;;;5056387;28;19986;-92
2023/09/18 07:34:17;;;;;;;;;;;;;;;;;;5087843;28;19976;-89
2023/09/18 07:36:44;;;;;;;;;;;;;;;;;;5067228;28;19924;-91
2023/09/18 07:39:11;;;;;;;;;;;;;;;;;;5046795;28;20026;-90
2023/09/18 07:41:37;;;;;;;;;;;;;;;;;;5040372;28;20511;-89
2023/09/18 07:44:06;;;;;;;;;;;;;;;;;;5027958;28;20296;-93
2023/09/18 07:46:35;;;;;;;;;;;;;;;;;;5061910;28;20357;-88
2023/09/18 07:52:18;;;;;;;;;;;;;;;;;;5069157;28;19923;-95
2023/09/18 07:54:58;;;;;;;;;;;;;;;;;;5027382;28;19931;-92
2023/09/18 07:57:23;;;;;;;;;;;;;;;;;;5028594;28;19924;-91
2023/09/18 07:59:49;;;;;;;;;;;;;;;;;;5027576;28;20422;-90
2023/09/18 08:02:21;;;;;;;;;;;;;;;;;;5032087;28;19928;-93
2023/09/18 08:04:53;;;;;;;;;;;;;;;;;;5030328;28;19928;-91
2023/09/18 08:07:31;;;;;;;;;;;;;;;;;;5050260;28;20376;-91
2023/09/18 08:09:57;;;;;;;;;;;;;;;;;;5044805;28;19931;-93
2023/09/18 08:12:26;;;;;;;;;;;;;;;;;;5034295;28;19921;-89
2023/09/18 08:14:58;;;;;;;;;;;;;;;;;;5063304;28;20398;-87
2023/09/18 08:17:33;;;;;;;;;;;;;;;;;;5046044;28;19935;-90
2023/09/18 08:19:59;;;;;;;;;;;;;;;;;;5043470;28;19938;-93
2023/09/18 08:22:25;;;;;;;;;;;;;;;;;;5048839;28;19924;-93
2023/09/18 08:24:55;;;;;;;;;;;;;;;;;;5032014;28;20321;-89
2023/09/18 08:30:44;;;;;;;;;;;;;;;;;;;;;
2023/09/18 08:33:20;;;;;;;;;;;;;;;;;;5015434;28;19960;-92
2023/09/18 08:35:46;;;;;;;;;;;;;;;;;;5038412;28;19983;-90
2023/09/18 08:38:28;;;;;;;;;;;;;;;;;;5021873;28;19940;-93
2023/09/18 08:41:05;;;;;;;;;;;;;;;;;;;;;
2023/09/18 08:44:06;;;;;;;;;;;;;;;;;;5103671;28;19954;-86
2023/09/18 08:46:44;;;;;;;;;;;;;;;;;;5070157;28;20007;-88
2023/09/18 08:49:29;;;;;;;;;;;;;;;;;;5066903;28;19927;-89
2023/09/18 09:01:05;;;;;;;;;;;;;;;;;;;;;
2023/09/18 09:03:53;;;;;;;;;;;;;;;;;;5040352;28;19947;-87
2023/09/18 09:06:19;;;;;;;;;;;;;;;;;;5006727;28;19929;-86
2023/09/18 09:08:45;;;;;;;;;;;;;;;;;;5006012;28;20477;-83
2023/09/18 09:11:11;;;;;;;;;;;;;;;;;;5013626;28;19928;-92
2023/09/18 09:13:49;;;;;;;;;;;;;;;;;;5011866;28;20032;-91
2023/09/18 09:16:31;;;;;;;;;;;;;;;;;;5044235;22;19925;-93
2023/09/18 09:19:16;;;;;;;;;;;;;;;;;;5091612;28;19998;-87
2023/09/18 09:21:43;;;;;;;;;;;;;;;;;;5091833;27;19974;-89
2023/09/18 09:24:11;;;;;;;;;;;;;;;;;;5090172;27;20010;-94
2023/09/18 09:26:37;;;;;;;;;;;;;;;;;;5088365;28;20082;-85
2023/09/18 09:29:03;;;;;;;;;;;;;;;;;;5092494;27;20140;-90
2023/09/18 09:31:30;;;;;;;;;;;;;;;;;;5067510;28;19927;-86
2023/09/18 09:33:56;;;;;;;;;;;;;;;;;;5074693;28;19931;-85
2023/09/18 09:36:24;;;;;;;;;;;;;;;;;;5070647;28;22575;-89
2023/09/18 09:38:50;;;;;;;;;;;;;;;;;;5105559;28;20018;-85
2023/09/18 09:41:17;;;;;;;;;;;;;;;;;;5074201;28;20183;-86
2023/09/18 09:43:43;;;;;;;;;;;;;;;;;;5085869;28;19935;-88
2023/09/18 09:46:10;;;;;;;;;;;;;;;;;;5076752;28;19943;-85
2023/09/18 09:48:36;;;;;;;;;;;;;;;;;;5091266;28;19971;-86
2023/09/18 09:51:03;;;;;;;;;;;;;;;;;;5068784;28;19963;-94
2023/09/18 09:53:28;;;;;;;;;;;;;;;;;;5098817;28;20259;-84
2023/09/18 09:55:54;;;;;;;;;;;;;;;;;;5096491;28;19928;-92
2023/09/18 09:58:20;;;;;;;;;;;;;;;;;;5095789;28;20024;-91
2023/09/18 10:00:48;;;;;;;;;;;;;;;;;;5081674;28;20405;-86
2023/09/18 10:03:14;;;;;;;;;;;;;;;;;;5099035;28;20045;-86
2023/09/18 10:05:40;;;;;;;;;;;;;;;;;;5096556;28;20034;-92
2023/09/18 10:08:06;;;;;;;;;;;;;;;;;;5082909;28;19934;-87
2023/09/18 10:10:32;;;;;;;;;;;;;;;;;;5095310;28;19927;-85
2023/09/18 10:13:00;;;;;;;;;;;;;;;;;;5085501;28;19995;-87
2023/09/18 10:15:31;;;;;;;;;;;;;;;;;;5062539;28;20589;-87
2023/09/18 10:17:59;;;;;;;;;;;;;;;;;;5060478;28;20035;-89
2023/09/18 10:20:35;;;;;;;;;;;;;;;;;;5082919;28;19928;-89
2023/09/18 10:23:01;;;;;;;;;;;;;;;;;;5080176;28;19932;-88
2023/09/18 10:25:27;;;;;;;;;;;;;;;;;;5071393;28;19938;-92
2023/09/18 10:27:54;;;;;;;;;;;;;;;;;;5082179;28;19931;-89
2023/09/18 10:30:19;;;;;;;;;;;;;;;;;;5111658;27;19938;-86
2023/09/18 10:32:48;;;;;;;;;;;;;;;;;;5084724;27;20030;-86
2023/09/18 10:35:19;;;;;;;;;;;;;;;;;;5093267;27;19932;-88
2023/09/18 10:37:57;;;;;;;;;;;;;;;;;;5078599;28;19935;-90
2023/09/18 10:40:33;;;;;;;;;;;;;;;;;;;;;
2023/09/18 10:43:15;;;;;;;;;;;;;;;;;;5079159;28;19967;-92
2023/09/18 10:45:59;;;;;;;;;;;;;;;;;;5092374;28;20010;-91
2023/09/18 10:48:43;;;;;;;;;;;;;;;;;;5070681;28;19928;-88
2023/09/18 10:54:15;;;;;;;;;;;;;;;;;;4399636;26;20362;-87
2023/09/18 10:56:41;;;;;;;;;;;;;;;;;;5093864;28;19932;-87
2023/09/18 11:02:12;;;;;;;;;;;;;;;;;;5062296;28;19962;-90
2023/09/18 11:04:38;;;;;;;;;;;;;;;;;;5041536;28;19931;-91
2023/09/18 11:16:37;;;;;;;;;;;;;;;;;;5106514;27;19928;-90
2023/09/18 11:19:13;;;;;;;;;;;;;;;;;;;;;
2023/09/18 11:24:35;;;;;;;;;;;;;;;;;;5056450;28;20325;-92
2023/09/18 11:33:01;;;;;;;;;;;;;;;;;;5086957;22;19934;-96
2023/09/18 11:35:28;;;;;;;;;;;;;;;;;;5069611;28;19924;-96
2023/09/18 11:37:54;;;;;;;;;;;;;;;;;;5072680;28;20500;-95
2023/09/18 11:40:25;;;;;;;;;;;;;;;;;;5081807;28;19979;-96
2023/09/18 11:42:51;;;;;;;;;;;;;;;;;;5073902;28;19928;-95
2023/09/18 11:45:17;;;;;;;;;;;;;;;;;;5079653;28;19928;-95
2023/09/18 11:47:46;;;;;;;;;;;;;;;;;;5081941;28;19931;-96
2023/09/18 11:50:14;;;;;;;;;;;;;;;;;;5072828;28;19928;-96
2023/09/18 11:52:40;;;;;;;;;;;;;;;;;;5064633;28;19935;-95
2023/09/18 11:55:07;;;;;;;;;;;;;;;;;;5078210;28;20002;-94
2023/09/18 11:57:33;;;;;;;;;;;;;;;;;;5076008;28;19937;-95
2023/09/18 12:00:11;;;;;;;;;;;;;;;;;;5071871;28;20354;-96
2023/09/18 12:02:45;;;;;;;;;;;;;;;;;;5079941;28;19928;-96
2023/09/18 12:05:30;;;;;;;;;;;;;;;;;;5117429;28;19918;-96
2023/09/18 12:07:56;;;;;;;;;;;;;;;;;;5072942;28;19978;-96
2023/09/18 12:10:22;;;;;;;;;;;;;;;;;;5080933;28;19924;-96
2023/09/18 12:12:48;;;;;;;;;;;;;;;;;;5082619;28;19934;-96
2023/09/18 12:15:15;;;;;;;;;;;;;;;;;;5072674;28;19924;-96
2023/09/18 12:17:41;;;;;;;;;;;;;;;;;;5084551;28;19967;-96
2023/09/18 12:20:07;;;;;;;;;;;;;;;;;;5071229;28;19908;-96
2023/09/18 12:22:36;;;;;;;;;;;;;;;;;;5085475;28;19967;-94
2023/09/18 12:25:04;;;;;;;;;;;;;;;;;;5091867;28;19924;-95
2023/09/18 12:27:30;;;;;;;;;;;;;;;;;;5084386;28;19923;-96
2023/09/18 12:29:56;;;;;;;;;;;;;;;;;;5081220;28;19986;-95
2023/09/18 12:32:25;;;;;;;;;;;;;;;;;;5075495;28;20467;-96
2023/09/18 12:34:51;;;;;;;;;;;;;;;;;;5072077;28;19932;-96
2023/09/18 12:37:20;;;;;;;;;;;;;;;;;;5084071;28;19912;-96
2023/09/18 12:39:46;;;;;;;;;;;;;;;;;;5077848;28;20052;-96
2023/09/18 12:42:12;;;;;;;;;;;;;;;;;;5069939;28;19969;-95
2023/09/18 12:44:38;;;;;;;;;;;;;;;;;;5078461;28;19928;-96
2023/09/18 12:47:04;;;;;;;;;;;;;;;;;;5067538;28;19935;-96
2023/09/18 12:49:31;;;;;;;;;;;;;;;;;;5073753;28;19999;-96
2023/09/18 12:51:58;;;;;;;;;;;;;;;;;;5080027;28;19951;-94
2023/09/18 12:54:24;;;;;;;;;;;;;;;;;;5072850;28;19924;-96
2023/09/18 12:56:50;;;;;;;;;;;;;;;;;;5065798;28;19931;-94
2023/09/18 12:59:16;;;;;;;;;;;;;;;;;;5067556;28;19988;-94
2023/09/18 13:01:41;;;;;;;;;;;;;;;;;;5059472;28;19974;-95
2023/09/18 13:04:08;;;;;;;;;;;;;;;;;;5064354;28;20399;-96
2023/09/18 13:06:35;;;;;;;;;;;;;;;;;;5072433;28;19930;-96
2023/09/18 13:09:01;;;;;;;;;;;;;;;;;;5068897;28;19927;-95
2023/09/18 13:11:27;;;;;;;;;;;;;;;;;;5060886;28;19969;-95
2023/09/18 13:13:53;;;;;;;;;;;;;;;;;;5065640;28;19932;-95
2023/09/18 13:16:19;;;;;;;;;;;;;;;;;;5059211;28;20031;-93
2023/09/18 13:18:45;;;;;;;;;;;;;;;;;;5067674;28;19928;-93
2023/09/18 13:21:11;;;;;;;;;;;;;;;;;;5099504;28;19976;-96
2023/09/18 13:23:37;;;;;;;;;;;;;;;;;;5068930;28;19971;-95
2023/09/18 13:26:03;;;;;;;;;;;;;;;;;;5056664;28;19975;-94
2023/09/18 13:28:31;;;;;;;;;;;;;;;;;;5070292;28;20290;-94
2023/09/18 13:30:57;;;;;;;;;;;;;;;;;;5063050;28;19951;-94
2023/09/18 13:33:25;;;;;;;;;;;;;;;;;;5067472;28;19928;-94
2023/09/18 13:35:52;;;;;;;;;;;;;;;;;;5064968;28;20406;-94
2023/09/18 13:38:19;;;;;;;;;;;;;;;;;;5069586;28;19998;-96
2023/09/18 13:40:45;;;;;;;;;;;;;;;;;;5064136;28;19942;-95
2023/09/18 13:43:11;;;;;;;;;;;;;;;;;;5058728;28;19923;-95
2023/09/18 13:45:37;;;;;;;;;;;;;;;;;;5066026;28;20522;-94
2023/09/18 13:50:16;;;;;;;7.75;3.45;;;;;;;;;;5121479;27;20362;-94
2023/09/18 13:52:42;;;;;;;7.50;3.15;;;;;;;;;;5069179;28;20043;-94
2023/09/18 13:55:09;;;;;;;5.90;3.30;;;;;;;;;;5066580;28;20051;-95
2023/09/18 13:57:35;;;;;;;5.32;2.85;;;;;;;;;;5066869;28;20043;-96
2023/09/18 14:00:06;;;;;;;5.70;3.55;;;;;;;;;;5066535;28;20075;-94
2023/09/18 14:02:33;;;;;;;4.65;3.50;;;;;;;;;;5071520;28;20704;-94
2023/09/18 14:04:59;;;;;;;8.57;3.30;;;;;;;;;;5074751;28;20122;-94
2023/09/18 14:07:25;;;;;;;5.65;3.20;;;;;;;;;;5078075;28;20099;-91
2023/09/18 14:09:54;;;;;;;5.60;3.08;;;;;;;;;;5317768;22;20053;-93
2023/09/18 14:18:54;;;;;;;4.63;3.25;;;;;;;;;;5043427;22;20107;-93
2023/09/18 14:21:20;;;;;;;6.03;3.53;;;;;;;;;;5005502;28;20435;-93
2023/09/18 14:23:47;;;;;;;7.82;3.58;;;;;;;;;;5005058;28;20049;-92
2023/09/18 14:26:13;;;;;;;6.40;3.58;;;;;;;;;;5006832;28;20928;-92
2023/09/18 14:28:39;;;;;;;9.02;4.10;;;;;;;;;;5020014;28;20080;-95
2023/09/18 14:31:05;;;;;;;4.93;3.38;;;;;;;;;;5005167;28;20041;-96
2023/09/18 14:33:31;;;;;;;5.75;4.00;;;;;;;;;;5015889;28;20048;-94
2023/09/18 14:35:57;;;;;;;4.88;3.40;;;;;;;;;;5003690;28;20930;-94
2023/09/18 14:38:23;;;;;;;5.75;3.35;;;;;;;;;;5004826;28;20063;-95
2023/09/18 14:40:49;;;;;;;7.10;3.03;;;;;;;;;;5002764;28;20044;-93
2023/09/18 14:43:15;;;;;;;5.22;3.33;;;;;;;;;;5004047;28;20053;-94
2023/09/18 14:45:41;;;;;;;7.50;2.95;;;;;;;;;;5006165;28;20131;-94
2023/09/18 14:48:07;;;;;;;5.78;2.88;;;;;;;;;;5002425;28;20091;-93
2023/09/18 14:50:34;;;;;;;7.18;3.08;;;;;;;;;;5005637;28;20056;-94
2023/09/18 14:53:00;;;;;;;5.55;2.97;;;;;;;;;;5003155;28;20039;-94
2023/09/18 14:55:26;;;;;;;4.00;2.50;;;;;;;;;;5005406;28;20057;-92
2023/09/18 14:57:52;;;;;;;5.30;2.50;;;;;;;;;;5001182;28;20394;-94
2023/09/18 15:00:18;;;;;;;5.35;2.55;;;;;;;;;;4995960;28;20080;-93
2023/09/18 15:02:46;;;;;;;5.50;2.67;;;;;;;;;;4992061;28;20049;-94
2023/09/18 15:05:14;;;;;;;4.82;2.55;;;;;;;;;;4993348;28;20029;-95
2023/09/18 15:07:41;;;;;;;4.82;2.63;;;;;;;;;;4989146;28;20763;-94
2023/09/18 15:10:08;;;;;;;5.55;2.47;;;;;;;;;;4989670;28;20069;-95
2023/09/18 15:12:34;;;;;;;7.43;2.53;;;;;;;;;;4991181;28;20049;-95
2023/09/18 15:15:00;;;;;;;5.22;2.53;;;;;;;;;;4990773;28;20456;-92
2023/09/18 15:17:26;;;;;;;6.72;2.50;;;;;;;;;;5008860;28;20088;-95
2023/09/18 15:19:55;;;;;;;4.65;2.20;;;;;;;;;;4990295;28;20038;-92
2023/09/18 15:22:21;;;;;;;4.30;2.13;;;;;;;;;;4994789;28;20045;-95
2023/09/18 15:24:47;;;;;;;7.47;2.20;;;;;;;;;;4993937;28;20060;-93
2023/09/18 15:27:14;;;;;;;6.80;2.63;;;;;;;;;;4988408;28;20049;-92
2023/09/18 15:29:40;;;;;;;4.30;2.10;;;;;;;;;;4983525;28;20135;-91
2023/09/18 15:32:06;;;;;;;5.10;2.33;;;;;;;;;;4985471;28;20103;-92
2023/09/18 15:34:32;;;;;;;3.67;2.00;;;;;;;;;;4986536;28;20534;-89
2023/09/18 15:36:58;;;;;;;4.50;2.05;;;;;;;;;;4989319;28;20084;-92
2023/09/18 15:39:25;;;;;;;4.55;1.95;;;;;;;;;;5002502;28;20261;-92
2023/09/18 15:41:54;;;;;;;3.35;2.00;;;;;;;;;;5005692;28;20049;-96
2023/09/18 15:44:20;;;;;;;4.53;2.20;;;;;;;;;;4974601;28;20123;-95
2023/09/18 15:46:46;;;;;;;5.05;2.08;;;;;;;;;;5021135;23;20528;-86
2023/09/18 15:49:12;;;;;;;5.50;2.30;;;;;;;;;;5003692;28;20069;-88
2023/09/18 15:51:38;;;;;;;6.25;2.15;;;;;;;;;;4990401;22;20046;-88
2023/09/18 15:54:06;;;;;;;2.83;1.98;;;;;;;;;;4998309;28;20374;-87
2023/09/18 15:56:33;;;;;;;8.27;2.22;;;;;;;;;;5014154;28;20092;-88
2023/09/18 15:58:59;;;;;;;3.80;2.20;;;;;;;;;;5012902;28;20045;-87
2023/09/18 16:01:26;;;;;;;6.13;2.15;;;;;;;;;;5012755;28;20496;-88
2023/09/18 16:03:52;;;;;;;6.38;2.17;;;;;;;;;;4996489;28;20164;-86
2023/09/18 16:06:20;;;;;;;5.90;2.40;;;;;;;;;;4999237;28;20124;-87
2023/09/18 16:09:02;;;;;;;;;;;;;;;;;;4997964;28;20132;-92
2023/09/18 16:11:29;;;;;;;9.02;3.42;;;;;;;;;;5016361;28;20438;-90
2023/09/18 16:13:57;;;;;;;5.50;2.38;;;;;;;;;;5027645;28;20041;-90
2023/09/18 16:16:43;;;;;;;5.30;2.92;;;;;;;;;;5119717;22;20061;-88
2023/09/18 16:19:28;;;;;;;7.20;2.92;;;;;;;;;;5038350;28;20551;-88
2023/09/18 16:21:54;;;;;;;5.75;2.63;;;;;;;;;;5037429;28;20043;-91
2023/09/18 16:24:20;;;;;;;5.65;2.60;;;;;;;;;;5023173;28;20125;-88
2023/09/18 16:26:46;;;;;;;5.03;2.55;;;;;;;;;;5022729;28;20062;-88
2023/09/18 16:29:15;;;;;;;4.55;2.20;;;;;;;;;;5025121;28;20052;-87
2023/09/18 16:31:41;;;;;;;6.20;2.28;;;;;;;;;;5032330;28;20047;-89
2023/09/18 16:34:09;;;;;;;3.97;2.50;;;;;;;;;;5042173;28;20048;-88
2023/09/18 16:36:45;;;;;;;6.25;2.60;;;;;;;;;;5037139;28;20624;-88
2023/09/18 16:39:14;;;;;;;5.45;3.03;;;;;;;;;;5036164;28;20040;-90
2023/09/18 16:41:40;;;;;;;5.00;2.38;;;;;;;;;;5036985;28;20052;-88
2023/09/18 16:44:18;;;;;;;5.03;2.47;;;;;;;;;;5024256;28;20085;-88
2023/09/18 16:46:44;;;;;;;;;;;;;;;;;;5039935;28;20674;-89
2023/09/18 16:49:13;;;;;;;4.72;2.10;;;;;;;;;;5024738;28;20022;-87
2023/09/18 16:51:40;;;;;;;4.65;2.55;;;;;;;;;;5028006;28;20036;-88
2023/09/18 16:54:06;;;;;;;6.93;3.25;;;;;;;;;;5032641;28;20044;-89
2023/09/18 16:56:33;;;;;;;4.25;2.88;;;;;;;;;;5033836;28;20068;-86
2023/09/18 16:58:59;;;;;;;5.03;2.30;;;;;;;;;;5039057;28;20516;-88
2023/09/18 17:01:57;;;;;;;3.88;2.45;;;;;;;;;;5037573;28;20299;-92
2023/09/18 17:05:04;;;;;;;7.60;2.08;;;;;;;;;;5051529;28;20059;-89
2023/09/18 17:07:44;;;;;;;5.93;2.03;;;;;;;;;;4978846;28;21141;-88
2023/09/18 17:10:19;;;;;;;7.73;2.10;;;;;;;;;;4992443;28;20470;-91
2023/09/18 17:12:45;;;;;;;3.40;2.25;;;;;;;;;;5018084;28;20539;-90